createdAt,value
2022-12-24T00:01:54.654Z,21.08
2022-12-24T00:05:01.403Z,24.23
2022-12-24T00:08:06.164Z,25.08
2022-12-24T00:11:10.784Z,25.65
2022-12-24T00:14:15.298Z,32.30
2022-12-24T00:17:19.713Z,24.33
2022-12-24T00:20:25.119Z,26.80
2022-12-24T00:23:30.246Z,21.88
2022-12-24T00:26:35.260Z,29.52
2022-12-24T00:29:39.911Z,29.98
2022-12-24T00:32:44.048Z,25.38
2022-12-24T00:35:52.366Z,35.08
2022-12-24T00:38:56.635Z,33.88
2022-12-24T00:42:01.023Z,31.08
2022-12-24T00:45:06.211Z,41.67
2022-12-24T00:48:10.835Z,32.78
2022-12-24T00:51:15.842Z,37.92
2022-12-24T00:54:20.671Z,30.55
2022-12-24T00:57:24.846Z,31.55
2022-12-24T01:00:29.209Z,36.38
2022-12-24T01:03:35.412Z,36.80
2022-12-24T01:06:39.999Z,35.28
2022-12-24T01:09:44.001Z,37.72
2022-12-24T01:12:48.308Z,44.88
2022-12-24T01:15:53.002Z,42.58
2022-12-24T01:18:57.451Z,41.00
2022-12-24T01:22:01.984Z,36.10
2022-12-24T01:25:06.785Z,41.08
2022-12-24T01:28:10.888Z,40.22
2022-12-24T01:31:18.882Z,47.60
2022-12-24T01:34:23.076Z,35.05
2022-12-24T01:37:27.547Z,38.00
2022-12-24T01:40:50.718Z,40.75
2022-12-24T01:43:55.466Z,39.93
2022-12-24T01:47:17.835Z,36.40
2022-12-24T01:50:22.099Z,45.05
2022-12-24T01:53:26.514Z,45.72
2022-12-24T01:56:32.439Z,53.70
2022-12-24T01:59:38.901Z,48.67
2022-12-24T02:02:47.938Z,37.20
2022-12-24T02:05:57.280Z,40.10
2022-12-24T02:09:02.013Z,45.55
2022-12-24T02:12:07.611Z,49.60
2022-12-24T02:15:15.675Z,48.55
2022-12-24T02:18:34.697Z,46.83
2022-12-24T02:22:11.474Z,48.67
2022-12-24T02:25:30.418Z,45.08
2022-12-24T02:29:19.658Z,49.58
2022-12-24T02:33:14.760Z,44.70
2022-12-24T02:37:07.015Z,43.47
2022-12-24T02:40:22.011Z,47.35
2022-12-24T02:43:35.856Z,44.20
2022-12-24T02:46:40.210Z,48.50
2022-12-24T02:49:47.652Z,49.22
2022-12-24T02:52:52.334Z,48.78
2022-12-24T02:56:13.336Z,48.38
2022-12-24T02:59:40.415Z,40.58
2022-12-24T03:03:12.632Z,54.83
2022-12-24T03:06:33.824Z,52.65
2022-12-24T03:10:06.646Z,51.70
2022-12-24T03:13:18.987Z,48.55
2022-12-24T03:16:26.980Z,60.25
2022-12-24T03:19:32.995Z,53.72
2022-12-24T03:22:38.113Z,39.53
2022-12-24T03:25:44.991Z,52.92
2022-12-24T03:28:50.177Z,54.60
2022-12-24T03:32:02.263Z,46.88
2022-12-24T03:35:08.711Z,47.42
2022-12-24T03:38:13.248Z,45.75
2022-12-24T03:41:17.506Z,47.97
2022-12-24T03:44:21.689Z,56.38
2022-12-24T03:47:26.195Z,44.88
2022-12-24T03:50:30.528Z,48.45
2022-12-24T03:53:34.759Z,48.28
2022-12-24T03:56:38.740Z,49.20
2022-12-24T03:59:43.192Z,50.28
2022-12-24T04:02:47.899Z,56.67
2022-12-24T04:06:11.275Z,51.30
2022-12-24T04:09:15.928Z,45.78
2022-12-24T04:12:20.313Z,49.67
2022-12-24T04:15:25.115Z,53.50
2022-12-24T04:18:29.929Z,48.80
2022-12-24T04:21:34.184Z,44.20
2022-12-24T04:24:38.476Z,47.63
2022-12-24T04:27:42.926Z,48.90
2022-12-24T04:30:47.289Z,43.75
2022-12-24T04:33:53.355Z,55.50
2022-12-24T04:36:58.429Z,53.17
2022-12-24T04:40:03.213Z,49.03
2022-12-24T04:43:07.707Z,47.58
2022-12-24T04:46:18.042Z,48.78
2022-12-24T04:49:22.774Z,42.78
2022-12-24T04:52:28.025Z,59.03
2022-12-24T04:55:32.368Z,48.05
2022-12-24T04:58:36.819Z,46.63
2022-12-24T05:01:41.419Z,43.60
2022-12-24T05:04:46.082Z,45.40
2022-12-24T05:07:50.534Z,46.53
2022-12-24T05:10:59.328Z,46.70
2022-12-24T05:14:04.006Z,50.60
2022-12-24T05:17:08.969Z,45.63
2022-12-24T05:20:13.266Z,41.83
2022-12-24T05:23:43.684Z,53.92
2022-12-24T05:26:57.170Z,47.45
2022-12-24T05:30:01.460Z,31.17
2022-12-24T05:33:06.136Z,41.78
2022-12-24T05:36:10.761Z,48.90
2022-12-24T05:39:17.477Z,42.22
2022-12-24T05:42:22.130Z,52.20
2022-12-24T05:45:26.664Z,47.30
2022-12-24T05:48:31.122Z,47.85
2022-12-24T05:51:35.771Z,42.55
2022-12-24T05:54:40.709Z,41.80
2022-12-24T05:57:45.733Z,56.33
2022-12-24T06:00:54.457Z,47.20
2022-12-24T06:03:58.929Z,50.58
2022-12-24T06:07:03.106Z,51.20
2022-12-24T06:10:08.913Z,45.90
2022-12-24T06:13:13.647Z,46.45
2022-12-24T06:16:20.461Z,43.63
2022-12-24T06:19:26.105Z,47.42
2022-12-24T06:22:30.888Z,42.47
2022-12-24T06:25:35.287Z,35.13
2022-12-24T06:28:40.124Z,50.63
2022-12-24T06:31:44.694Z,47.60
2022-12-24T06:34:49.329Z,51.60
2022-12-24T06:37:53.570Z,53.42
2022-12-24T06:40:57.825Z,42.65
2022-12-24T06:44:02.106Z,48.97
2022-12-24T06:47:06.961Z,44.88
2022-12-24T06:50:11.927Z,43.30
2022-12-24T06:53:16.318Z,39.33
2022-12-24T06:56:22.022Z,40.17
2022-12-24T06:59:26.570Z,38.88
2022-12-24T07:02:30.912Z,41.97
2022-12-24T07:05:35.274Z,44.70
2022-12-24T07:08:39.484Z,42.25
2022-12-24T07:11:43.701Z,37.53
2022-12-24T07:14:47.936Z,43.17
2022-12-24T07:17:52.842Z,46.78
2022-12-24T07:20:58.258Z,42.53
2022-12-24T07:24:02.778Z,40.17
2022-12-24T07:27:07.161Z,40.30
2022-12-24T07:30:12.148Z,40.85
2022-12-24T07:33:16.688Z,40.75
2022-12-24T07:36:22.135Z,35.25
2022-12-24T07:39:26.927Z,38.47
2022-12-24T07:42:31.283Z,36.10
2022-12-24T07:45:35.907Z,39.33
2022-12-24T07:48:40.642Z,37.80
2022-12-24T07:51:45.561Z,42.22
2022-12-24T07:54:49.734Z,35.67
2022-12-24T07:57:54.033Z,39.05
2022-12-24T08:01:00.095Z,39.72
2022-12-24T08:04:05.777Z,38.35
2022-12-24T08:07:10.817Z,32.28
2022-12-24T08:10:15.307Z,35.65
2022-12-24T08:13:20.234Z,38.50
2022-12-24T08:16:24.916Z,36.10
2022-12-24T08:19:29.611Z,32.58
2022-12-24T08:22:34.059Z,33.85
2022-12-24T08:25:42.288Z,28.52
2022-12-24T08:28:46.738Z,36.75
2022-12-24T08:31:51.172Z,32.20
2022-12-24T08:34:55.972Z,33.22
2022-12-24T08:38:00.356Z,34.13
2022-12-24T08:41:05.658Z,31.27
2022-12-24T08:44:10.434Z,31.70
2022-12-24T08:47:14.806Z,30.52
2022-12-24T08:50:19.051Z,31.20
2022-12-24T08:53:23.449Z,33.92
2022-12-24T08:56:27.976Z,28.77
2022-12-24T08:59:32.348Z,30.23
2022-12-24T09:02:37.051Z,32.92
2022-12-24T09:05:41.641Z,29.85
2022-12-24T09:08:50.624Z,31.50
2022-12-24T09:11:55.155Z,25.58
2022-12-24T09:15:03.399Z,38.58
2022-12-24T09:18:08.495Z,28.90
2022-12-24T09:21:15.605Z,31.13
2022-12-24T09:24:20.104Z,37.55
2022-12-24T09:27:24.459Z,30.10
2022-12-24T09:30:28.739Z,27.13
2022-12-24T09:33:36.931Z,27.55
2022-12-24T09:36:41.252Z,28.52
2022-12-24T09:39:45.628Z,28.20
2022-12-24T09:42:54.338Z,29.73
2022-12-24T09:46:22.827Z,30.23
2022-12-24T09:49:40.575Z,26.75
2022-12-24T09:52:47.517Z,38.75
2022-12-24T09:56:00.558Z,33.30
2022-12-24T09:59:13.486Z,28.35
2022-12-24T10:02:20.376Z,41.38
2022-12-24T10:05:44.012Z,34.40
2022-12-24T10:09:24.057Z,33.72
2022-12-24T10:12:47.588Z,33.67
2022-12-24T10:16:33.001Z,36.20
2022-12-24T10:19:56.673Z,31.50
2022-12-24T10:23:31.993Z,28.60
2022-12-24T10:26:55.364Z,24.60
2022-12-24T10:30:16.916Z,26.50
2022-12-24T10:33:49.926Z,23.90
2022-12-24T10:36:54.589Z,23.95
2022-12-24T10:40:00.873Z,25.35
2022-12-24T10:43:16.601Z,33.70
2022-12-24T10:46:38.941Z,30.20
2022-12-24T10:50:02.400Z,25.20
2022-12-24T10:53:48.756Z,26.93
2022-12-24T10:57:02.090Z,22.20
2022-12-24T11:00:19.046Z,25.95
2022-12-24T11:03:42.609Z,26.40
2022-12-24T11:06:57.547Z,26.58
2022-12-24T11:10:08.053Z,25.75
2022-12-24T11:13:39.724Z,28.50
2022-12-24T11:16:57.117Z,29.10
2022-12-24T11:20:04.084Z,25.35
2022-12-24T11:23:17.230Z,29.48
2022-12-24T11:26:31.709Z,28.75
2022-12-24T11:29:36.097Z,33.13
2022-12-24T11:32:48.499Z,29.73
2022-12-24T11:36:00.598Z,28.58
2022-12-24T11:39:05.499Z,30.10
2022-12-24T11:42:39.355Z,28.35
2022-12-24T11:45:58.028Z,31.70
2022-12-24T11:49:31.730Z,34.35
2022-12-24T11:52:36.323Z,29.77
2022-12-24T11:55:45.607Z,31.08
2022-12-24T11:58:57.436Z,32.03
2022-12-24T12:02:30.078Z,29.98
2022-12-24T12:05:37.928Z,27.63
2022-12-24T12:08:43.656Z,27.30
2022-12-24T12:11:57.694Z,29.90
2022-12-24T12:15:24.846Z,24.17
2022-12-24T12:18:40.589Z,27.23
2022-12-24T12:21:49.347Z,28.45
2022-12-24T12:24:56.222Z,26.58
2022-12-24T12:28:07.548Z,27.80
2022-12-24T12:31:26.613Z,25.52
2022-12-24T12:34:46.240Z,29.00
2022-12-24T12:38:23.128Z,25.20
2022-12-24T12:42:03.762Z,27.50
2022-12-24T12:45:34.195Z,25.92
2022-12-24T12:49:03.246Z,28.67
2022-12-24T12:52:42.158Z,31.60
2022-12-24T12:56:11.163Z,31.85
2022-12-24T12:59:33.677Z,34.40
2022-12-24T13:03:13.119Z,39.60
2022-12-24T13:06:59.871Z,31.65
2022-12-24T13:10:24.267Z,34.95
2022-12-24T13:13:51.588Z,47.17
2022-12-24T13:17:01.864Z,38.28
2022-12-24T13:20:36.869Z,38.78
2022-12-24T13:23:41.194Z,37.38
2022-12-24T13:27:32.919Z,49.90
2022-12-24T13:30:43.499Z,56.40
2022-12-24T13:33:51.524Z,55.08
2022-12-24T13:37:20.856Z,54.80
2022-12-24T13:40:27.335Z,50.08
2022-12-24T13:44:11.202Z,54.10
2022-12-24T13:47:25.424Z,55.33
2022-12-24T13:50:50.716Z,59.42
2022-12-24T13:54:00.301Z,55.05
2022-12-24T13:57:27.506Z,63.92
2022-12-24T14:01:00.660Z,55.55
2022-12-24T14:04:09.623Z,65.25
2022-12-24T14:07:20.506Z,75.25
2022-12-24T14:10:31.874Z,71.78
2022-12-24T14:13:39.518Z,64.97
2022-12-24T14:16:50.322Z,86.68
2022-12-24T14:20:02.606Z,64.47
2022-12-24T14:23:23.206Z,69.85
2022-12-24T14:26:35.702Z,63.03
2022-12-24T14:30:21.071Z,52.17
2022-12-24T14:33:31.949Z,69.45
2022-12-24T14:36:37.729Z,54.88
2022-12-24T14:39:48.742Z,57.78
2022-12-24T14:43:26.232Z,68.50
2022-12-24T14:47:01.871Z,65.47
2022-12-24T14:50:39.391Z,66.00
2022-12-24T14:54:31.592Z,81.50
2022-12-24T14:57:38.535Z,65.20
2022-12-24T15:00:44.286Z,76.45
2022-12-24T15:04:14.920Z,54.60
2022-12-24T15:07:20.399Z,59.30
2022-12-24T15:10:33.790Z,71.70
2022-12-24T15:13:46.541Z,50.10
2022-12-24T15:16:58.256Z,61.22
2022-12-24T15:20:07.737Z,75.80
2022-12-24T15:23:37.529Z,73.45
2022-12-24T15:26:45.545Z,76.38
2022-12-24T15:29:58.397Z,77.95
2022-12-24T15:33:05.356Z,89.68
2022-12-24T15:36:10.341Z,112.88
2022-12-24T15:39:18.599Z,85.78
2022-12-24T15:42:27.621Z,91.18
2022-12-24T15:45:44.008Z,90.07
2022-12-24T15:48:50.323Z,125.05
2022-12-24T15:52:02.937Z,96.47
2022-12-24T15:55:38.354Z,100.53
2022-12-24T15:58:45.712Z,107.85
2022-12-24T16:01:52.093Z,77.00
2022-12-24T16:05:29.700Z,79.25
2022-12-24T16:08:40.320Z,76.68
2022-12-24T16:11:45.274Z,75.18
2022-12-24T16:15:00.855Z,88.53
2022-12-24T16:18:06.209Z,86.80
2022-12-24T16:21:19.015Z,66.38
2022-12-24T16:24:28.456Z,89.43
2022-12-24T16:27:33.023Z,81.53
2022-12-24T16:30:37.245Z,76.03
2022-12-24T16:33:41.828Z,79.38
2022-12-24T16:36:46.863Z,70.70
2022-12-24T16:39:51.312Z,74.55
2022-12-24T16:43:17.609Z,66.03
2022-12-24T16:46:22.447Z,61.08
2022-12-24T16:49:27.871Z,75.47
2022-12-24T16:52:36.145Z,50.35
2022-12-24T16:55:40.262Z,51.63
2022-12-24T16:58:45.276Z,62.63
2022-12-24T17:01:51.208Z,64.32
2022-12-24T17:04:56.070Z,67.00
2022-12-24T17:08:01.919Z,77.38
2022-12-24T17:11:06.258Z,108.03
2022-12-24T17:14:19.656Z,101.22
2022-12-24T17:17:28.979Z,65.63
2022-12-24T17:20:33.812Z,61.63
2022-12-24T17:23:41.779Z,44.20
2022-12-24T17:26:46.348Z,49.72
2022-12-24T17:32:55.151Z,64.05
2022-12-24T17:35:59.352Z,42.20
2022-12-24T17:39:03.910Z,48.85
2022-12-24T17:42:08.271Z,43.28
2022-12-24T17:45:12.581Z,37.88
2022-12-24T17:48:16.855Z,51.13
2022-12-24T17:51:23.432Z,60.85
2022-12-24T17:54:27.791Z,70.43
2022-12-24T17:57:32.135Z,65.38
2022-12-24T18:00:36.842Z,77.40
2022-12-24T18:03:41.991Z,58.20
2022-12-24T18:06:49.528Z,58.95
2022-12-24T18:09:54.303Z,53.60
2022-12-24T18:12:58.584Z,58.33
2022-12-24T18:16:02.821Z,58.60
2022-12-24T18:19:11.648Z,61.35
2022-12-24T18:22:16.174Z,61.60
2022-12-24T18:25:20.672Z,54.97
2022-12-24T18:28:25.052Z,46.38
2022-12-24T18:31:30.639Z,42.65
2022-12-24T18:34:35.509Z,55.00
2022-12-24T18:37:39.964Z,42.42
2022-12-24T18:40:44.023Z,43.15
2022-12-24T18:43:48.663Z,33.65
2022-12-24T18:46:53.746Z,40.97
2022-12-24T18:49:58.391Z,31.60
2022-12-24T18:53:04.183Z,40.45
2022-12-24T18:56:16.137Z,46.88
2022-12-24T18:59:20.479Z,39.17
2022-12-24T19:02:25.219Z,38.42
2022-12-24T19:05:31.039Z,40.63
2022-12-24T19:12:00.504Z,23.80
2022-12-24T19:15:06.613Z,32.53
2022-12-24T19:18:10.955Z,29.83
2022-12-24T19:21:17.726Z,30.55
2022-12-24T19:24:22.731Z,29.58
2022-12-24T19:27:27.409Z,19.83
2022-12-24T19:30:31.990Z,34.85
2022-12-24T19:33:43.257Z,32.28
2022-12-24T19:36:48.231Z,23.73
2022-12-24T19:39:53.276Z,26.85
2022-12-24T19:42:58.076Z,24.65
2022-12-24T19:46:06.439Z,22.20
2022-12-24T19:49:12.438Z,30.55
2022-12-24T19:52:16.894Z,21.77
2022-12-24T19:55:21.340Z,37.17
2022-12-24T19:58:27.377Z,43.10
2022-12-24T20:01:35.251Z,21.73
2022-12-24T20:04:40.394Z,34.85
2022-12-24T20:07:45.045Z,40.97
2022-12-24T20:10:49.462Z,29.33
2022-12-24T20:13:58.550Z,37.35
2022-12-24T20:17:02.900Z,34.08
2022-12-24T20:20:08.463Z,29.30
2022-12-24T20:23:13.117Z,35.65
2022-12-24T20:26:20.404Z,45.60
2022-12-24T20:29:25.102Z,33.97
2022-12-24T20:32:29.723Z,53.20
2022-12-24T20:35:35.880Z,33.97
2022-12-24T20:38:40.406Z,38.92
2022-12-24T20:41:45.069Z,37.38
2022-12-24T20:44:49.602Z,39.00
2022-12-24T20:47:54.156Z,41.13
2022-12-24T20:50:59.201Z,31.25
2022-12-24T20:54:04.444Z,37.55
2022-12-24T20:57:08.615Z,37.10
2022-12-24T21:00:13.763Z,25.52
2022-12-24T21:03:18.773Z,34.75
2022-12-24T21:06:24.532Z,34.70
2022-12-24T21:09:30.443Z,28.33
2022-12-24T21:12:50.249Z,53.00
2022-12-24T21:15:54.900Z,54.72
2022-12-24T21:18:59.593Z,33.22
2022-12-24T21:22:04.026Z,44.45
2022-12-24T21:25:10.038Z,44.50
2022-12-24T21:28:17.578Z,46.80
2022-12-24T21:31:22.269Z,41.67
2022-12-24T21:34:27.057Z,47.60
2022-12-24T21:37:31.476Z,44.33
2022-12-24T21:40:38.897Z,38.75
2022-12-24T21:43:44.596Z,47.95
2022-12-24T21:46:49.571Z,39.80
2022-12-24T21:50:12.451Z,44.20
2022-12-24T21:53:36.150Z,49.17
2022-12-24T21:56:59.665Z,50.10
2022-12-24T22:00:26.676Z,37.53
2022-12-24T22:03:31.348Z,48.50
2022-12-24T22:06:54.681Z,46.88
2022-12-24T22:10:17.622Z,46.28
2022-12-24T22:13:23.119Z,48.20
2022-12-24T22:16:28.288Z,37.28
2022-12-24T22:19:32.996Z,41.40
2022-12-24T22:22:37.741Z,46.15
2022-12-24T22:25:43.901Z,49.55
2022-12-24T22:28:48.140Z,46.67
2022-12-24T22:31:52.762Z,41.45
2022-12-24T22:34:57.235Z,49.30
2022-12-24T22:38:01.753Z,54.95
2022-12-24T22:41:08.693Z,52.17
2022-12-24T22:44:13.180Z,43.63
2022-12-24T22:47:17.550Z,47.33
2022-12-24T22:50:22.388Z,38.67
2022-12-24T22:53:26.949Z,50.40
2022-12-24T22:56:35.518Z,49.28
2022-12-24T22:59:43.470Z,51.42
2022-12-24T23:02:48.122Z,60.95
2022-12-24T23:06:10.925Z,57.33
2022-12-24T23:09:16.019Z,47.67
2022-12-24T23:12:40.586Z,53.97
2022-12-24T23:15:44.964Z,59.20
2022-12-24T23:18:49.008Z,43.53
2022-12-24T23:21:53.356Z,61.65
2022-12-24T23:24:57.672Z,69.53
2022-12-24T23:28:02.142Z,53.05
2022-12-24T23:31:07.203Z,53.20
2022-12-24T23:34:11.890Z,59.25
2022-12-24T23:37:16.009Z,53.53
2022-12-24T23:40:20.080Z,57.35
2022-12-24T23:43:24.752Z,61.03
2022-12-24T23:46:30.230Z,48.80
2022-12-24T23:49:34.848Z,52.80
2022-12-24T23:52:38.908Z,44.72
2022-12-24T23:55:43.344Z,42.88
2022-12-24T23:58:48.373Z,42.47
